createdAt,value
2022-08-30T00:00:46.925Z,98156.39
2022-08-30T00:02:15.395Z,98153.44
2022-08-30T00:03:35.025Z,98153.64
2022-08-30T00:06:34.738Z,98153.63
2022-08-30T00:08:16.474Z,98155.31
2022-08-30T00:10:10.091Z,98157.95
2022-08-30T00:12:51.490Z,98152.59
2022-08-30T00:14:20.952Z,98158.81
2022-08-30T00:15:34.362Z,98162.58
2022-08-30T00:16:43.451Z,98163.45
2022-08-30T00:19:47.402Z,98164.60
2022-08-30T00:20:56.460Z,98164.38
2022-08-30T00:22:03.141Z,98163.96
2022-08-30T00:23:11.173Z,98164.34
2022-08-30T00:24:20.483Z,98163.45
2022-08-30T00:25:27.168Z,98165.36
2022-08-30T00:26:37.319Z,98165.66
2022-08-30T00:27:44.734Z,98165.25
2022-08-30T00:28:51.964Z,98164.52
2022-08-30T00:29:59.587Z,98165.73
2022-08-30T00:31:07.097Z,98170.42
2022-08-30T00:32:14.878Z,98169.68
2022-08-30T00:33:36.540Z,98165.40
2022-08-30T00:34:45.331Z,98165.41
2022-08-30T00:35:53.454Z,98168.39
2022-08-30T00:37:01.656Z,98174.39
2022-08-30T00:38:10.457Z,98169.05
2022-08-30T00:44:40.111Z,98174.33
2022-08-30T00:46:26.354Z,98171.92
2022-08-30T00:47:51.201Z,98173.52
2022-08-30T00:49:20.653Z,98171.85
2022-08-30T00:55:57.299Z,98172.27
2022-08-30T00:57:03.749Z,98176.91
2022-08-30T00:58:10.503Z,98175.73
2022-08-30T00:59:17.928Z,98176.46
2022-08-30T01:00:24.672Z,98177.79
2022-08-30T01:01:31.936Z,98177.77
2022-08-30T01:02:41.350Z,98177.95
2022-08-30T01:03:47.274Z,98177.00
2022-08-30T01:04:53.806Z,98178.06
2022-08-30T01:06:00.314Z,98179.73
2022-08-30T01:07:06.448Z,98178.33
2022-08-30T01:08:12.604Z,98175.21
2022-08-30T01:09:18.835Z,98176.48
2022-08-30T01:10:24.571Z,98178.27
2022-08-30T01:11:35.233Z,98174.94
2022-08-30T01:12:41.384Z,98175.59
2022-08-30T01:13:49.214Z,98178.17
2022-08-30T01:14:58.549Z,98177.11
2022-08-30T01:16:04.858Z,98180.12
2022-08-30T01:17:11.223Z,98176.13
2022-08-30T01:18:22.179Z,98177.86
2022-08-30T01:19:52.774Z,98180.38
2022-08-30T01:21:35.823Z,98179.96
2022-08-30T01:22:52.766Z,98180.09
2022-08-30T01:23:58.956Z,98179.20
2022-08-30T01:25:04.770Z,98182.05
2022-08-30T01:26:15.881Z,98181.02
2022-08-30T01:27:24.705Z,98185.90
2022-08-30T01:28:31.660Z,98185.69
2022-08-30T01:29:40.368Z,98183.38
2022-08-30T01:30:46.382Z,98186.08
2022-08-30T01:31:54.975Z,98183.27
2022-08-30T01:33:02.355Z,98184.39
2022-08-30T01:34:08.954Z,98183.27
2022-08-30T01:35:16.738Z,98179.98
2022-08-30T01:36:23.705Z,98174.31
2022-08-30T01:37:34.053Z,98173.65
2022-08-30T01:38:54.847Z,98174.77
2022-08-30T01:40:02.245Z,98170.32
2022-08-30T01:41:14.600Z,98172.12
2022-08-30T01:42:21.403Z,98166.56
2022-08-30T01:43:27.986Z,98169.19
2022-08-30T01:44:35.869Z,98180.32
2022-08-30T01:45:45.141Z,98179.16
2022-08-30T01:46:56.687Z,98181.39
2022-08-30T01:48:06.535Z,98181.05
2022-08-30T01:49:16.926Z,98181.28
2022-08-30T01:50:26.560Z,98184.36
2022-08-30T01:51:33.424Z,98183.55
2022-08-30T01:52:41.780Z,98186.77
2022-08-30T01:53:48.977Z,98190.55
2022-08-30T01:54:55.553Z,98189.05
2022-08-30T01:56:02.003Z,98189.27
2022-08-30T01:57:14.721Z,98185.91
2022-08-30T01:58:21.396Z,98187.33
2022-08-30T01:59:29.060Z,98187.45
2022-08-30T02:00:35.182Z,98187.95
2022-08-30T02:01:43.173Z,98191.08
2022-08-30T02:02:49.984Z,98194.14
2022-08-30T02:03:57.874Z,98193.96
2022-08-30T02:05:05.084Z,98198.31
2022-08-30T02:06:12.819Z,98198.16
2022-08-30T02:07:20.266Z,98196.94
2022-08-30T02:08:26.463Z,98199.50
2022-08-30T02:09:35.599Z,98199.58
2022-08-30T02:10:41.761Z,98201.29
2022-08-30T02:11:48.964Z,98205.41
2022-08-30T02:12:54.577Z,98209.08
2022-08-30T02:14:00.504Z,98212.27
2022-08-30T02:15:07.389Z,98216.08
2022-08-30T02:16:18.112Z,98217.92
2022-08-30T02:17:23.852Z,98222.54
2022-08-30T02:18:30.055Z,98220.22
2022-08-30T02:19:36.214Z,98220.87
2022-08-30T02:20:42.077Z,98225.34
2022-08-30T02:21:48.126Z,98225.99
2022-08-30T02:22:56.747Z,98229.36
2022-08-30T02:24:06.584Z,98231.98
2022-08-30T02:25:21.104Z,98233.13
2022-08-30T02:26:29.565Z,98236.25
2022-08-30T02:27:38.485Z,98238.33
2022-08-30T02:28:50.276Z,98242.42
2022-08-30T02:29:58.203Z,98244.45
2022-08-30T02:31:04.143Z,98245.14
2022-08-30T02:32:10.102Z,98247.02
2022-08-30T02:33:16.836Z,98248.86
2022-08-30T02:34:24.037Z,98248.77
2022-08-30T02:35:29.908Z,98252.89
2022-08-30T02:36:37.733Z,98256.62
2022-08-30T02:37:44.319Z,98255.84
2022-08-30T02:38:50.800Z,98256.43
2022-08-30T02:39:57.244Z,98258.78
2022-08-30T02:41:03.151Z,98260.23
2022-08-30T02:42:10.113Z,98258.05
2022-08-30T02:43:16.378Z,98260.36
2022-08-30T02:44:23.971Z,98259.70
2022-08-30T02:45:30.071Z,98262.00
2022-08-30T02:46:35.875Z,98261.88
2022-08-30T02:47:47.104Z,98268.58
2022-08-30T02:48:53.530Z,98270.45
2022-08-30T02:49:59.290Z,98271.90
2022-08-30T02:51:11.450Z,98268.99
2022-08-30T02:52:27.718Z,98270.33
2022-08-30T02:53:36.015Z,98272.29
2022-08-30T02:54:44.417Z,98273.52
2022-08-30T02:55:51.880Z,98275.48
2022-08-30T02:56:58.172Z,98278.95
2022-08-30T02:58:05.922Z,98279.55
2022-08-30T02:59:12.071Z,98284.77
2022-08-30T03:00:19.552Z,98288.86
2022-08-30T03:01:29.226Z,98286.95
2022-08-30T03:02:36.171Z,98292.17
2022-08-30T03:03:42.789Z,98296.38
2022-08-30T03:04:48.794Z,98295.39
2022-08-30T03:05:54.779Z,98297.65
2022-08-30T03:07:00.725Z,98299.73
2022-08-30T03:08:06.434Z,98303.14
2022-08-30T03:09:14.405Z,98307.18
2022-08-30T03:10:20.167Z,98308.36
2022-08-30T03:11:28.063Z,98309.54
2022-08-30T03:12:34.535Z,98315.98
2022-08-30T03:13:40.725Z,98318.33
2022-08-30T03:14:46.936Z,98324.17
2022-08-30T03:15:53.307Z,98326.26
2022-08-30T03:16:59.905Z,98328.94
2022-08-30T03:18:06.145Z,98331.66
2022-08-30T03:19:13.262Z,98333.24
2022-08-30T03:20:19.273Z,98330.87
2022-08-30T03:21:29.632Z,98331.45
2022-08-30T03:22:35.356Z,98333.71
2022-08-30T03:23:42.026Z,98336.94
2022-08-30T03:24:48.300Z,98340.59
2022-08-30T03:25:59.503Z,98345.59
2022-08-30T03:27:06.297Z,98345.85
2022-08-30T03:28:13.776Z,98352.55
2022-08-30T03:29:21.019Z,98351.89
2022-08-30T03:30:26.727Z,98352.02
2022-08-30T03:31:40.687Z,98354.67
2022-08-30T03:33:00.310Z,98353.00
2022-08-30T03:34:07.223Z,98357.29
2022-08-30T03:35:13.317Z,98360.46
2022-08-30T03:36:19.269Z,98362.48
2022-08-30T03:37:27.430Z,98365.73
2022-08-30T03:38:34.532Z,98369.54
2022-08-30T03:39:42.910Z,98372.99
2022-08-30T03:40:49.560Z,98373.05
2022-08-30T03:41:57.040Z,98372.70
2022-08-30T03:43:03.923Z,98373.71
2022-08-30T03:44:14.622Z,98378.31
2022-08-30T03:45:31.728Z,98380.06
2022-08-30T03:46:40.949Z,98381.42
2022-08-30T03:47:47.784Z,98387.52
2022-08-30T03:48:58.829Z,98392.48
2022-08-30T03:50:12.816Z,98395.05
2022-08-30T03:51:47.147Z,98399.77
2022-08-30T03:52:56.687Z,98399.44
2022-08-30T03:54:05.269Z,98404.52
2022-08-30T03:55:11.464Z,98408.23
2022-08-30T03:56:17.631Z,98409.30
2022-08-30T03:57:24.527Z,98410.98
2022-08-30T03:58:33.794Z,98412.57
2022-08-30T03:59:42.433Z,98412.80
2022-08-30T04:00:48.245Z,98410.09
2022-08-30T04:01:54.468Z,98408.91
2022-08-30T04:03:00.272Z,98411.37
2022-08-30T04:04:06.204Z,98412.21
2022-08-30T04:05:14.149Z,98412.58
2022-08-30T04:06:29.142Z,98419.30
2022-08-30T04:07:39.224Z,98422.33
2022-08-30T04:08:46.682Z,98423.98
2022-08-30T04:09:53.600Z,98426.44
2022-08-30T04:10:59.920Z,98426.92
2022-08-30T04:12:06.291Z,98424.98
2022-08-30T04:13:13.424Z,98429.51
2022-08-30T04:14:21.668Z,98429.27
2022-08-30T04:15:29.887Z,98435.38
2022-08-30T04:16:38.527Z,98435.40
2022-08-30T04:17:46.768Z,98435.86
2022-08-30T04:18:54.369Z,98436.63
2022-08-30T04:20:03.140Z,98437.91
2022-08-30T04:21:14.003Z,98436.88
2022-08-30T04:22:23.062Z,98436.55
2022-08-30T04:23:32.269Z,98439.14
2022-08-30T04:24:42.189Z,98440.75
2022-08-30T04:25:49.011Z,98441.35
2022-08-30T04:26:56.525Z,98443.94
2022-08-30T04:28:04.362Z,98445.80
2022-08-30T04:29:17.947Z,98445.84
2022-08-30T04:30:25.895Z,98448.57
2022-08-30T04:31:34.438Z,98450.08
2022-08-30T04:32:41.937Z,98452.38
2022-08-30T04:33:49.020Z,98450.69
2022-08-30T04:35:00.116Z,98449.81
2022-08-30T04:36:06.968Z,98451.48
2022-08-30T04:37:15.346Z,98453.13
2022-08-30T04:38:27.487Z,98455.55
2022-08-30T04:39:40.249Z,98455.83
2022-08-30T04:40:49.303Z,98456.84
2022-08-30T04:41:56.045Z,98456.30
2022-08-30T04:43:04.756Z,98457.40
2022-08-30T04:44:15.891Z,98459.37
2022-08-30T04:45:29.226Z,98457.36
2022-08-30T04:46:37.704Z,98456.41
2022-08-30T04:47:52.377Z,98459.95
2022-08-30T04:49:00.814Z,98460.98
2022-08-30T04:50:10.612Z,98462.48
2022-08-30T04:51:19.202Z,98459.65
2022-08-30T04:52:25.827Z,98459.39
2022-08-30T04:53:34.952Z,98458.47
2022-08-30T04:54:43.527Z,98455.44
2022-08-30T04:55:51.396Z,98454.95
2022-08-30T04:56:58.378Z,98456.51
2022-08-30T04:58:07.331Z,98457.21
2022-08-30T04:59:15.439Z,98456.85
2022-08-30T05:00:23.979Z,98457.46
2022-08-30T05:01:35.321Z,98455.81
2022-08-30T05:02:58.774Z,98459.23
2022-08-30T05:04:05.403Z,98458.81
2022-08-30T05:05:32.033Z,98458.93
2022-08-30T05:06:42.090Z,98460.99
2022-08-30T05:07:48.999Z,98460.79
2022-08-30T05:08:56.792Z,98458.64
2022-08-30T05:10:10.946Z,98461.34
2022-08-30T05:11:18.336Z,98464.63
2022-08-30T05:12:27.332Z,98463.55
2022-08-30T05:13:35.764Z,98467.41
2022-08-30T05:14:46.284Z,98464.56
2022-08-30T05:15:52.272Z,98464.92
2022-08-30T05:17:00.892Z,98466.85
2022-08-30T05:18:11.535Z,98466.91
2022-08-30T05:19:22.961Z,98466.15
2022-08-30T05:20:29.569Z,98468.73
2022-08-30T05:21:35.437Z,98464.38
2022-08-30T05:22:53.862Z,98465.57
2022-08-30T05:24:01.194Z,98466.58
2022-08-30T05:25:07.457Z,98463.71
2022-08-30T05:26:18.858Z,98464.14
2022-08-30T05:27:25.221Z,98466.09
2022-08-30T05:28:31.748Z,98467.04
2022-08-30T05:29:37.568Z,98467.40
2022-08-30T05:30:43.486Z,98464.14
2022-08-30T05:31:49.499Z,98463.77
2022-08-30T05:32:55.719Z,98463.50
2022-08-30T05:34:03.148Z,98461.77
2022-08-30T05:35:09.613Z,98458.72
2022-08-30T05:36:19.213Z,98460.64
2022-08-30T05:37:26.168Z,98460.30
2022-08-30T05:38:32.383Z,98463.97
2022-08-30T05:39:51.390Z,98462.60
2022-08-30T05:40:58.253Z,98462.11
2022-08-30T05:42:07.863Z,98465.86
2022-08-30T05:43:14.801Z,98463.13
2022-08-30T05:44:25.751Z,98464.09
2022-08-30T05:45:34.022Z,98466.06
2022-08-30T05:46:40.441Z,98463.96
2022-08-30T05:47:48.542Z,98466.30
2022-08-30T05:48:57.685Z,98464.17
2022-08-30T05:50:05.385Z,98464.48
2022-08-30T05:51:12.695Z,98464.30
2022-08-30T05:52:19.113Z,98464.64
2022-08-30T05:53:25.379Z,98466.67
2022-08-30T05:54:31.966Z,98468.10
2022-08-30T05:55:38.923Z,98470.48
2022-08-30T05:56:46.053Z,98466.36
2022-08-30T05:57:53.082Z,98466.41
2022-08-30T05:58:59.071Z,98465.93
2022-08-30T06:00:14.331Z,98465.30
2022-08-30T06:01:35.068Z,98464.05
2022-08-30T06:02:42.099Z,98465.34
2022-08-30T06:03:49.251Z,98467.27
2022-08-30T06:04:58.364Z,98466.35
2022-08-30T06:06:04.836Z,98465.45
2022-08-30T06:07:14.883Z,98465.64
2022-08-30T06:08:24.786Z,98460.64
2022-08-30T06:09:32.310Z,98460.77
2022-08-30T06:10:39.442Z,98460.64
2022-08-30T06:11:45.461Z,98460.02
2022-08-30T06:12:52.190Z,98462.16
2022-08-30T06:13:58.245Z,98461.54
2022-08-30T06:15:03.726Z,98462.56
2022-08-30T06:16:13.465Z,98463.00
2022-08-30T06:17:19.387Z,98464.17
2022-08-30T06:18:28.404Z,98461.84
2022-08-30T06:19:35.884Z,98462.10
2022-08-30T06:20:45.267Z,98461.77
2022-08-30T06:21:59.458Z,98464.11
2022-08-30T06:23:06.989Z,98466.62
2022-08-30T06:24:15.870Z,98469.92
2022-08-30T06:25:22.146Z,98467.78
2022-08-30T06:26:29.121Z,98470.88
2022-08-30T06:27:36.428Z,98471.95
2022-08-30T06:28:44.932Z,98469.81
2022-08-30T06:29:53.333Z,98472.91
2022-08-30T06:31:02.566Z,98473.77
2022-08-30T06:32:09.740Z,98475.92
2022-08-30T06:33:15.702Z,98474.92
2022-08-30T06:34:24.712Z,98474.71
2022-08-30T06:35:38.217Z,98476.25
2022-08-30T06:36:55.198Z,98475.81
2022-08-30T06:38:02.278Z,98473.54
2022-08-30T06:39:09.005Z,98470.63
2022-08-30T06:40:19.026Z,98470.11
2022-08-30T06:41:27.609Z,98471.52
2022-08-30T06:42:37.317Z,98473.38
2022-08-30T06:43:48.625Z,98477.04
2022-08-30T06:44:57.259Z,98470.76
2022-08-30T06:46:09.347Z,98476.42
2022-08-30T06:47:18.399Z,98478.48
2022-08-30T06:48:24.661Z,98478.44
2022-08-30T06:49:31.921Z,98479.38
2022-08-30T06:50:39.130Z,98482.60
2022-08-30T06:51:45.758Z,98482.61
2022-08-30T06:52:52.808Z,98485.95
2022-08-30T06:53:59.087Z,98485.50
2022-08-30T06:55:06.428Z,98487.04
2022-08-30T06:56:16.437Z,98485.23
2022-08-30T06:57:23.892Z,98486.30
2022-08-30T06:58:30.350Z,98486.09
2022-08-30T06:59:36.150Z,98483.69
2022-08-30T07:00:42.807Z,98485.78
2022-08-30T07:01:49.979Z,98485.66
2022-08-30T07:02:57.766Z,98489.42
2022-08-30T07:04:04.304Z,98490.36
2022-08-30T07:05:18.493Z,98492.88
2022-08-30T07:06:26.510Z,98493.20
2022-08-30T07:07:35.917Z,98490.13
2022-08-30T07:08:44.514Z,98491.70
2022-08-30T07:09:51.683Z,98493.89
2022-08-30T07:10:59.082Z,98497.41
2022-08-30T07:12:05.320Z,98497.31
2022-08-30T07:13:11.370Z,98496.79
2022-08-30T07:14:17.267Z,98496.97
2022-08-30T07:15:24.857Z,98498.67
2022-08-30T07:16:32.058Z,98499.02
2022-08-30T07:17:59.188Z,98497.13
2022-08-30T07:19:05.890Z,98496.52
2022-08-30T07:20:13.441Z,98497.56
2022-08-30T07:21:32.015Z,98498.70
2022-08-30T07:22:39.683Z,98503.05
2022-08-30T07:23:45.502Z,98502.58
2022-08-30T07:24:52.063Z,98502.52
2022-08-30T07:25:59.067Z,98501.95
2022-08-30T07:27:06.234Z,98502.83
2022-08-30T07:28:13.329Z,98502.91
2022-08-30T07:29:19.408Z,98506.17
2022-08-30T07:30:26.898Z,98503.73
2022-08-30T07:31:35.281Z,98503.58
2022-08-30T07:32:41.218Z,98502.16
2022-08-30T07:33:47.406Z,98500.19
2022-08-30T07:34:55.296Z,98499.42
2022-08-30T07:36:03.183Z,98500.81
2022-08-30T07:37:18.013Z,98502.13
2022-08-30T07:38:28.767Z,98498.87
2022-08-30T07:39:40.113Z,98500.42
2022-08-30T07:40:55.957Z,98502.77
2022-08-30T07:42:02.978Z,98500.88
2022-08-30T07:43:10.526Z,98506.19
2022-08-30T07:44:16.615Z,98510.23
2022-08-30T07:45:25.699Z,98513.77
2022-08-30T07:46:32.813Z,98514.34
2022-08-30T07:47:40.948Z,98516.73
2022-08-30T07:48:48.145Z,98515.83
2022-08-30T07:49:55.708Z,98517.15
2022-08-30T07:51:05.617Z,98520.44
2022-08-30T07:52:10.905Z,98517.83
2022-08-30T07:53:17.006Z,98517.67
2022-08-30T07:54:24.691Z,98520.09
2022-08-30T07:55:30.714Z,98518.58
2022-08-30T07:56:37.545Z,98522.55
2022-08-30T07:57:44.401Z,98521.75
2022-08-30T07:58:53.074Z,98521.41
2022-08-30T07:59:59.419Z,98521.40
2022-08-30T08:01:06.840Z,98522.73
2022-08-30T08:02:12.919Z,98521.97
2022-08-30T08:03:20.013Z,98522.17
2022-08-30T08:04:27.063Z,98521.84
2022-08-30T08:05:54.059Z,98523.73
2022-08-30T08:07:02.728Z,98522.95
2022-08-30T08:08:08.620Z,98520.92
2022-08-30T08:09:16.194Z,98520.95
2022-08-30T08:10:24.465Z,98521.02
2022-08-30T08:11:33.865Z,98522.31
2022-08-30T08:12:41.615Z,98525.31
2022-08-30T08:14:00.620Z,98525.19
2022-08-30T08:15:09.015Z,98523.38
2022-08-30T08:16:16.221Z,98521.10
2022-08-30T08:17:23.546Z,98519.73
2022-08-30T08:18:32.228Z,98523.02
2022-08-30T08:19:38.438Z,98520.17
2022-08-30T08:20:45.342Z,98518.23
2022-08-30T08:22:04.145Z,98518.38
2022-08-30T08:23:18.325Z,98518.27
2022-08-30T08:24:25.261Z,98520.75
2022-08-30T08:25:31.590Z,98522.13
2022-08-30T08:26:41.142Z,98522.58
2022-08-30T08:27:53.195Z,98521.77
2022-08-30T08:29:01.197Z,98525.36
2022-08-30T08:30:07.249Z,98523.33
2022-08-30T08:31:21.427Z,98522.05
2022-08-30T08:32:31.977Z,98522.70
2022-08-30T08:33:38.997Z,98522.19
2022-08-30T08:34:45.008Z,98520.32
2022-08-30T08:35:50.692Z,98520.48
2022-08-30T08:37:00.937Z,98520.60
2022-08-30T08:38:06.869Z,98519.77
2022-08-30T08:39:12.882Z,98517.86
2022-08-30T08:40:19.230Z,98516.33
2022-08-30T08:41:33.099Z,98516.48
2022-08-30T08:42:54.419Z,98515.06
2022-08-30T08:44:01.372Z,98518.54
2022-08-30T08:45:11.464Z,98519.60
2022-08-30T08:46:32.124Z,98518.64
2022-08-30T08:47:41.265Z,98520.18
2022-08-30T08:49:00.919Z,98520.27
2022-08-30T08:50:19.033Z,98516.63
2022-08-30T08:51:47.228Z,98514.41
2022-08-30T08:53:46.066Z,98511.70
2022-08-30T08:54:59.366Z,98508.71
2022-08-30T08:56:12.997Z,98510.05
2022-08-30T08:57:22.697Z,98512.36
2022-08-30T08:58:33.093Z,98510.36
2022-08-30T08:59:40.426Z,98506.64
2022-08-30T09:00:47.903Z,98506.11
2022-08-30T09:01:54.394Z,98504.16
2022-08-30T09:03:07.695Z,98505.09
2022-08-30T09:04:35.936Z,98503.73
2022-08-30T09:05:42.259Z,98506.40
2022-08-30T09:06:58.720Z,98505.27
2022-08-30T09:08:17.877Z,98508.83
2022-08-30T09:09:39.418Z,98507.79
2022-08-30T09:11:07.590Z,98508.23
2022-08-30T09:12:14.002Z,98506.46
2022-08-30T09:13:22.985Z,98503.91
2022-08-30T09:14:34.788Z,98501.67
2022-08-30T09:15:41.182Z,98500.38
2022-08-30T09:16:50.407Z,98501.14
2022-08-30T09:18:01.948Z,98499.94
2022-08-30T09:19:11.714Z,98499.20
2022-08-30T09:20:27.630Z,98496.21
2022-08-30T09:21:34.117Z,98499.27
2022-08-30T09:22:46.791Z,98502.70
2022-08-30T09:24:11.915Z,98497.30
2022-08-30T09:25:31.622Z,98497.38
2022-08-30T09:26:39.267Z,98497.18
2022-08-30T09:27:46.532Z,98497.15
2022-08-30T09:28:55.603Z,98496.98
2022-08-30T09:30:06.959Z,98498.77
2022-08-30T09:31:32.948Z,98501.12
2022-08-30T09:32:42.869Z,98502.23
2022-08-30T09:34:10.820Z,98500.15
2022-08-30T09:35:19.833Z,98502.15
2022-08-30T09:36:52.285Z,98499.66
2022-08-30T09:37:59.266Z,98500.44
2022-08-30T09:39:34.392Z,98499.35
2022-08-30T09:40:49.209Z,98498.27
2022-08-30T09:41:56.554Z,98494.14
2022-08-30T09:43:31.820Z,98495.11
2022-08-30T09:44:38.906Z,98498.05
2022-08-30T09:46:13.186Z,98497.37
2022-08-30T09:47:29.164Z,98502.68
2022-08-30T09:48:44.526Z,98503.08
2022-08-30T09:50:03.493Z,98504.14
2022-08-30T09:51:49.589Z,98503.43
2022-08-30T09:53:23.398Z,98500.46
2022-08-30T09:54:45.310Z,98500.88
2022-08-30T09:55:54.837Z,98497.72
2022-08-30T09:57:19.934Z,98496.52
2022-08-30T09:59:10.600Z,98499.15
2022-08-30T10:00:23.996Z,98498.38
2022-08-30T10:01:41.437Z,98496.80
2022-08-30T10:03:09.743Z,98496.39
2022-08-30T10:04:45.202Z,98501.95
2022-08-30T10:06:08.434Z,98500.73
2022-08-30T10:07:28.924Z,98504.05
2022-08-30T10:08:51.760Z,98504.27
2022-08-30T10:10:45.765Z,98502.48
2022-08-30T10:11:53.217Z,98502.72
2022-08-30T10:13:37.790Z,98502.28
2022-08-30T10:14:54.316Z,98500.25
2022-08-30T10:16:30.171Z,98502.06
2022-08-30T10:17:58.880Z,98503.77
2022-08-30T10:19:21.043Z,98506.16
2022-08-30T10:20:33.950Z,98506.44
2022-08-30T10:21:46.214Z,98508.36
2022-08-30T10:23:10.269Z,98509.93
2022-08-30T10:24:21.286Z,98508.31
2022-08-30T10:25:31.535Z,98507.48
2022-08-30T10:26:44.868Z,98509.53
2022-08-30T10:28:11.998Z,98508.45
2022-08-30T10:29:44.707Z,98511.06
2022-08-30T10:30:58.424Z,98509.06
2022-08-30T10:32:41.196Z,98511.98
2022-08-30T10:33:53.287Z,98513.38
2022-08-30T10:35:11.477Z,98512.48
2022-08-30T10:36:27.241Z,98513.16
2022-08-30T10:37:33.992Z,98511.67
2022-08-30T10:38:49.847Z,98508.61
2022-08-30T10:40:01.236Z,98507.04
2022-08-30T10:41:47.838Z,98503.35
2022-08-30T10:42:56.229Z,98501.42
2022-08-30T10:44:24.510Z,98499.96
2022-08-30T10:45:32.423Z,98497.71
2022-08-30T10:46:57.576Z,98499.09
2022-08-30T10:48:39.348Z,98497.52
2022-08-30T10:49:54.585Z,98496.77
2022-08-30T10:51:06.339Z,98495.40
2022-08-30T10:52:33.322Z,98496.83
2022-08-30T10:53:50.621Z,98493.66
2022-08-30T10:55:15.639Z,98497.83
2022-08-30T10:56:26.751Z,98496.65
2022-08-30T10:57:35.729Z,98499.66
2022-08-30T10:58:43.089Z,98497.64
2022-08-30T11:00:01.370Z,98498.00
2022-08-30T11:01:15.581Z,98495.65
2022-08-30T11:02:30.341Z,98495.90
2022-08-30T11:04:06.692Z,98496.45
2022-08-30T11:05:46.634Z,98500.16
2022-08-30T11:07:09.856Z,98497.09
2022-08-30T11:08:48.021Z,98500.25
2022-08-30T11:10:12.292Z,98499.99
2022-08-30T11:11:40.694Z,98499.66
2022-08-30T11:13:14.943Z,98495.86
2022-08-30T11:14:20.633Z,98500.63
2022-08-30T11:15:34.923Z,98501.35
2022-08-30T11:16:43.308Z,98498.40
2022-08-30T11:18:04.571Z,98497.19
2022-08-30T11:19:43.311Z,98498.52
2022-08-30T11:20:51.515Z,98501.23
2022-08-30T11:22:14.524Z,98500.65
2022-08-30T11:23:20.821Z,98507.73
2022-08-30T11:24:27.211Z,98508.83
2022-08-30T11:26:09.145Z,98511.64
2022-08-30T11:27:44.270Z,98512.67
2022-08-30T11:28:51.317Z,98511.42
2022-08-30T11:29:58.396Z,98512.48
2022-08-30T11:31:23.688Z,98512.52
2022-08-30T11:34:57.890Z,98514.92
2022-08-30T11:36:05.298Z,98514.84
2022-08-30T11:37:10.978Z,98516.73
2022-08-30T11:38:45.525Z,98518.23
2022-08-30T11:39:55.853Z,98521.72
2022-08-30T11:41:11.120Z,98520.17
2022-08-30T11:42:29.434Z,98518.86
2022-08-30T11:43:47.136Z,98523.06
2022-08-30T11:44:55.667Z,98522.27
2022-08-30T11:46:30.661Z,98526.23
2022-08-30T11:47:47.645Z,98528.36
2022-08-30T11:48:55.837Z,98532.65
2022-08-30T11:50:14.979Z,98530.46
2022-08-30T11:52:27.971Z,98532.56
2022-08-30T11:53:51.998Z,98533.36
2022-08-30T11:55:15.894Z,98531.94
2022-08-30T11:56:37.937Z,98531.30
2022-08-30T11:57:58.967Z,98527.77
2022-08-30T11:59:30.416Z,98531.58
2022-08-30T12:00:44.209Z,98532.90
2022-08-30T12:01:57.352Z,98532.20
2022-08-30T12:03:07.602Z,98533.86
2022-08-30T12:04:23.576Z,98532.83
2022-08-30T12:05:51.314Z,98536.23
2022-08-30T12:07:06.083Z,98536.46
2022-08-30T12:08:37.327Z,98537.11
2022-08-30T12:10:05.409Z,98539.26
2022-08-30T12:11:17.242Z,98537.63
2022-08-30T12:12:48.045Z,98538.35
2022-08-30T12:13:57.741Z,98541.56
2022-08-30T12:15:03.897Z,98543.27
2022-08-30T12:16:22.607Z,98544.56
2022-08-30T12:18:15.674Z,98544.11
2022-08-30T12:19:22.766Z,98543.90
2022-08-30T12:20:33.442Z,98542.58
2022-08-30T12:21:44.909Z,98541.70
2022-08-30T12:22:53.204Z,98544.09
2022-08-30T12:24:20.923Z,98543.20
2022-08-30T12:25:36.745Z,98542.86
2022-08-30T12:26:45.029Z,98543.96
2022-08-30T12:27:52.126Z,98543.23
2022-08-30T12:29:22.533Z,98540.20
2022-08-30T12:30:40.449Z,98539.11
2022-08-30T12:32:05.765Z,98538.98
2022-08-30T12:33:12.696Z,98540.84
2022-08-30T12:34:29.008Z,98542.33
2022-08-30T12:35:35.367Z,98542.89
2022-08-30T12:36:51.676Z,98542.52
2022-08-30T12:38:07.442Z,98542.67
2022-08-30T12:39:19.292Z,98539.70
2022-08-30T12:40:31.662Z,98541.23
2022-08-30T12:41:43.543Z,98540.45
2022-08-30T12:42:58.019Z,98541.65
2022-08-30T12:44:05.361Z,98541.94
2022-08-30T12:45:17.776Z,98547.02
2022-08-30T12:46:23.693Z,98547.52
2022-08-30T12:47:36.975Z,98546.55
2022-08-30T12:48:45.992Z,98546.50
2022-08-30T12:49:53.036Z,98546.14
2022-08-30T12:50:59.917Z,98549.86
2022-08-30T12:52:25.590Z,98547.77
2022-08-30T12:53:47.077Z,98547.66
2022-08-30T12:55:16.937Z,98548.35
2022-08-30T12:56:56.332Z,98548.30
2022-08-30T12:58:13.422Z,98550.20
2022-08-30T12:59:58.530Z,98549.27
2022-08-30T13:01:21.261Z,98553.83
2022-08-30T13:02:55.630Z,98555.31
2022-08-30T13:04:22.240Z,98558.02
2022-08-30T13:05:44.965Z,98557.52
2022-08-30T13:06:55.342Z,98559.31
2022-08-30T13:08:22.489Z,98562.02
2022-08-30T13:09:36.479Z,98558.92
2022-08-30T13:10:56.051Z,98561.84
2022-08-30T13:12:21.144Z,98565.19
2022-08-30T13:13:45.168Z,98564.91
2022-08-30T13:15:33.894Z,98565.48
2022-08-30T13:16:45.299Z,98564.14
2022-08-30T13:17:52.996Z,98565.09
2022-08-30T13:19:21.438Z,98566.75
2022-08-30T13:20:29.230Z,98568.60
2022-08-30T13:21:38.531Z,98568.80
2022-08-30T13:23:07.300Z,98566.58
2022-08-30T13:24:12.997Z,98567.17
2022-08-30T13:25:20.358Z,98566.98
2022-08-30T13:26:28.032Z,98566.89
2022-08-30T13:27:37.242Z,98564.52
2022-08-30T13:29:10.375Z,98562.88
2022-08-30T13:30:18.914Z,98567.25
2022-08-30T13:31:26.158Z,98566.88
2022-08-30T13:32:39.043Z,98566.82
2022-08-30T13:33:48.290Z,98566.52
2022-08-30T13:34:56.540Z,98568.59
2022-08-30T13:36:05.415Z,98570.09
2022-08-30T13:38:44.372Z,98569.65
2022-08-30T13:39:50.676Z,98570.98
2022-08-30T13:40:57.878Z,98573.84
2022-08-30T13:44:09.421Z,98574.23
2022-08-30T13:45:04.006Z,98571.48
2022-08-30T13:46:10.524Z,98572.64
2022-08-30T13:47:33.421Z,98573.04
2022-08-30T13:48:44.858Z,98575.10
2022-08-30T13:49:52.539Z,98574.23
2022-08-30T13:50:59.123Z,98573.48
2022-08-30T13:52:19.762Z,98571.73
2022-08-30T13:54:58.178Z,98574.45
2022-08-30T13:56:05.096Z,98574.27
2022-08-30T13:57:11.263Z,98579.07
2022-08-30T13:58:18.103Z,98578.23
2022-08-30T13:59:24.255Z,98580.48
2022-08-30T14:00:33.593Z,98579.58
2022-08-30T14:03:11.838Z,98580.70
2022-08-30T14:04:18.292Z,98581.45
2022-08-30T14:07:20.028Z,98580.75
2022-08-30T14:08:49.348Z,98581.19
2022-08-30T14:10:30.589Z,98583.59
2022-08-30T14:11:27.586Z,98581.66
2022-08-30T14:14:30.243Z,98584.27
2022-08-30T14:15:30.044Z,98584.32
2022-08-30T14:16:36.476Z,98587.28
2022-08-30T14:17:42.803Z,98588.20
2022-08-30T14:18:50.541Z,98589.15
2022-08-30T14:19:58.587Z,98591.48
2022-08-30T14:21:07.287Z,98592.91
2022-08-30T14:22:13.649Z,98592.91
2022-08-30T14:23:20.031Z,98591.99
2022-08-30T14:24:26.451Z,98595.13
2022-08-30T14:25:32.507Z,98598.52
2022-08-30T14:26:49.062Z,98596.73
2022-08-30T14:27:55.527Z,98598.30
2022-08-30T14:29:04.337Z,98600.36
2022-08-30T14:30:11.137Z,98601.14
2022-08-30T14:31:17.285Z,98602.47
2022-08-30T14:32:30.764Z,98603.62
2022-08-30T14:33:38.733Z,98604.10
2022-08-30T14:34:45.889Z,98606.20
2022-08-30T14:35:56.638Z,98605.80
2022-08-30T14:37:03.257Z,98603.08